sensor_id;sensor_type;location;lat;lon;timestamp;pressure;altitude;pressure_sealevel;temperature;humidity
26859;BME280;14429;48.346;16.338;2023-04-12T00:01:23;99550.59;;;11.93;61.26
26859;BME280;14429;48.346;16.338;2023-04-12T00:03:50;99544.19;;;11.95;62.25
26859;BME280;14429;48.346;16.338;2023-04-12T00:06:15;99540.41;;;11.98;61.82
26859;BME280;14429;48.346;16.338;2023-04-12T00:08:41;99547.75;;;11.84;58.75
26859;BME280;14429;48.346;16.338;2023-04-12T00:11:06;99542.25;;;12.08;58.71
26859;BME280;14429;48.346;16.338;2023-04-12T00:13:32;99534.44;;;11.94;60.00
26859;BME280;14429;48.346;16.338;2023-04-12T00:15:57;99547.22;;;12.02;60.13
26859;BME280;14429;48.346;16.338;2023-04-12T00:18:23;99532.22;;;12.55;59.98
26859;BME280;14429;48.346;16.338;2023-04-12T00:20:50;99534.63;;;12.47;59.62
26859;BME280;14429;48.346;16.338;2023-04-12T00:23:15;99536.09;;;12.51;59.65
26859;BME280;14429;48.346;16.338;2023-04-12T00:25:41;99532.56;;;12.18;58.68
26859;BME280;14429;48.346;16.338;2023-04-12T00:28:06;99527.78;;;12.00;59.82
26859;BME280;14429;48.346;16.338;2023-04-12T00:30:32;99510.47;;;12.27;61.37
26859;BME280;14429;48.346;16.338;2023-04-12T00:32:57;99516.97;;;12.01;60.25
26859;BME280;14429;48.346;16.338;2023-04-12T00:35:23;99507.19;;;12.34;59.79
26859;BME280;14429;48.346;16.338;2023-04-12T00:37:50;99509.97;;;12.54;59.99
26859;BME280;14429;48.346;16.338;2023-04-12T00:40:15;99505.84;;;12.61;59.57
26859;BME280;14429;48.346;16.338;2023-04-12T00:42:41;99500.50;;;12.83;58.80
26859;BME280;14429;48.346;16.338;2023-04-12T00:45:07;99497.47;;;12.44;56.63
26859;BME280;14429;48.346;16.338;2023-04-12T00:47:34;99485.78;;;12.34;58.06
26859;BME280;14429;48.346;16.338;2023-04-12T00:50:00;99484.81;;;12.35;59.67
26859;BME280;14429;48.346;16.338;2023-04-12T00:52:26;99482.38;;;12.32;60.53
26859;BME280;14429;48.346;16.338;2023-04-12T00:54:53;99484.56;;;12.27;60.71
26859;BME280;14429;48.346;16.338;2023-04-12T00:57:18;99486.28;;;12.50;60.27
26859;BME280;14429;48.346;16.338;2023-04-12T00:59:44;99481.53;;;12.32;57.89
26859;BME280;14429;48.346;16.338;2023-04-12T01:02:09;99488.00;;;12.40;59.76
26859;BME280;14429;48.346;16.338;2023-04-12T01:04:35;99485.78;;;12.12;59.37
26859;BME280;14429;48.346;16.338;2023-04-12T01:07:07;99476.28;;;11.98;56.72
26859;BME280;14429;48.346;16.338;2023-04-12T01:09:37;99468.97;;;11.78;56.95
26859;BME280;14429;48.346;16.338;2023-04-12T01:12:18;99459.91;;;12.13;59.42
26859;BME280;14429;48.346;16.338;2023-04-12T01:14:49;99460.72;;;12.03;58.24
26859;BME280;14429;48.346;16.338;2023-04-12T01:17:19;99463.66;;;12.00;60.75
26859;BME280;14429;48.346;16.338;2023-04-12T01:19:53;99462.56;;;12.13;61.80
26859;BME280;14429;48.346;16.338;2023-04-12T01:22:37;99467.53;;;12.17;59.56
26859;BME280;14429;48.346;16.338;2023-04-12T01:25:23;99463.19;;;12.38;60.39
26859;BME280;14429;48.346;16.338;2023-04-12T01:27:55;99462.94;;;12.30;57.03
26859;BME280;14429;48.346;16.338;2023-04-12T01:30:22;99463.66;;;12.43;59.14
26859;BME280;14429;48.346;16.338;2023-04-12T01:32:52;99459.44;;;12.40;58.07
26859;BME280;14429;48.346;16.338;2023-04-12T01:35:20;99451.63;;;12.16;56.80
26859;BME280;14429;48.346;16.338;2023-04-12T01:37:47;99457.22;;;12.56;57.40
26859;BME280;14429;48.346;16.338;2023-04-12T01:40:12;99454.41;;;12.47;59.45
26859;BME280;14429;48.346;16.338;2023-04-12T01:42:38;99455.16;;;12.49;59.92
26859;BME280;14429;48.346;16.338;2023-04-12T01:45:06;99447.88;;;12.18;56.74
26859;BME280;14429;48.346;16.338;2023-04-12T01:47:32;99442.75;;;12.59;59.75
26859;BME280;14429;48.346;16.338;2023-04-12T01:50:02;99441.16;;;12.78;58.89
26859;BME280;14429;48.346;16.338;2023-04-12T01:52:35;99441.63;;;12.72;58.36
26859;BME280;14429;48.346;16.338;2023-04-12T01:55:04;99439.09;;;12.70;58.18
26859;BME280;14429;48.346;16.338;2023-04-12T01:57:30;99441.53;;;12.73;57.94
26859;BME280;14429;48.346;16.338;2023-04-12T01:59:58;99451.97;;;12.55;57.03
26859;BME280;14429;48.346;16.338;2023-04-12T02:02:27;99445.06;;;12.63;58.01
26859;BME280;14429;48.346;16.338;2023-04-12T02:04:53;99447.59;;;12.65;59.03
26859;BME280;14429;48.346;16.338;2023-04-12T02:07:19;99438.38;;;12.58;59.65
26859;BME280;14429;48.346;16.338;2023-04-12T02:09:45;99442.63;;;12.49;60.15
26859;BME280;14429;48.346;16.338;2023-04-12T02:12:11;99439.84;;;11.86;58.86
26859;BME280;14429;48.346;16.338;2023-04-12T02:14:36;99444.41;;;11.62;60.02
26859;BME280;14429;48.346;16.338;2023-04-12T02:17:01;99449.41;;;11.67;60.42
26859;BME280;14429;48.346;16.338;2023-04-12T02:19:28;99447.63;;;10.52;56.52
26859;BME280;14429;48.346;16.338;2023-04-12T02:21:54;99438.34;;;10.22;58.17
26859;BME280;14429;48.346;16.338;2023-04-12T02:24:19;99436.63;;;10.79;57.74
26859;BME280;14429;48.346;16.338;2023-04-12T02:26:45;99438.25;;;10.82;60.73
26859;BME280;14429;48.346;16.338;2023-04-12T02:29:11;99429.88;;;10.86;60.79
26859;BME280;14429;48.346;16.338;2023-04-12T02:31:37;99424.94;;;11.16;62.00
26859;BME280;14429;48.346;16.338;2023-04-12T02:34:02;99426.09;;;11.01;61.94
26859;BME280;14429;48.346;16.338;2023-04-12T02:36:29;99430.78;;;9.04;60.42
26859;BME280;14429;48.346;16.338;2023-04-12T02:38:55;99412.28;;;9.53;64.65
26859;BME280;14429;48.346;16.338;2023-04-12T02:41:21;99420.13;;;10.51;65.08
26859;BME280;14429;48.346;16.338;2023-04-12T02:43:47;99410.03;;;10.67;63.23
26859;BME280;14429;48.346;16.338;2023-04-12T02:46:15;99408.81;;;11.40;62.26
26859;BME280;14429;48.346;16.338;2023-04-12T02:48:41;99406.09;;;11.85;60.59
26859;BME280;14429;48.346;16.338;2023-04-12T02:51:07;99402.44;;;11.86;60.44
26859;BME280;14429;48.346;16.338;2023-04-12T02:53:33;99419.19;;;11.99;60.26
26859;BME280;14429;48.346;16.338;2023-04-12T02:55:59;99417.41;;;11.99;61.13
26859;BME280;14429;48.346;16.338;2023-04-12T02:58:24;99418.72;;;12.05;61.32
26859;BME280;14429;48.346;16.338;2023-04-12T03:00:50;99416.06;;;12.15;60.86
26859;BME280;14429;48.346;16.338;2023-04-12T03:03:15;99417.22;;;11.68;59.40
26859;BME280;14429;48.346;16.338;2023-04-12T03:05:40;99408.75;;;11.74;55.17
26859;BME280;14429;48.346;16.338;2023-04-12T03:08:06;99402.28;;;11.55;57.82
26859;BME280;14429;48.346;16.338;2023-04-12T03:10:33;99409.25;;;11.90;58.17
26859;BME280;14429;48.346;16.338;2023-04-12T03:12:58;99413.53;;;10.91;57.94
26859;BME280;14429;48.346;16.338;2023-04-12T03:15:24;99411.91;;;10.77;54.06
26859;BME280;14429;48.346;16.338;2023-04-12T03:17:49;99406.19;;;11.62;60.61
26859;BME280;14429;48.346;16.338;2023-04-12T03:20:14;99409.00;;;11.82;60.83
26859;BME280;14429;48.346;16.338;2023-04-12T03:22:40;99407.31;;;11.92;61.29
26859;BME280;14429;48.346;16.338;2023-04-12T03:25:06;99405.38;;;12.15;60.47
26859;BME280;14429;48.346;16.338;2023-04-12T03:27:33;99410.94;;;12.23;59.75
26859;BME280;14429;48.346;16.338;2023-04-12T03:29:58;99401.09;;;12.13;59.83
26859;BME280;14429;48.346;16.338;2023-04-12T03:32:24;99409.28;;;11.11;54.86
26859;BME280;14429;48.346;16.338;2023-04-12T03:34:49;99404.72;;;11.58;60.25
26859;BME280;14429;48.346;16.338;2023-04-12T03:37:15;99404.38;;;11.62;59.04
26859;BME280;14429;48.346;16.338;2023-04-12T03:39:40;99401.72;;;12.06;58.73
26859;BME280;14429;48.346;16.338;2023-04-12T03:42:05;99397.91;;;11.65;58.83
26859;BME280;14429;48.346;16.338;2023-04-12T03:44:32;99396.03;;;11.88;59.95
26859;BME280;14429;48.346;16.338;2023-04-12T03:46:58;99391.53;;;12.11;60.35
26859;BME280;14429;48.346;16.338;2023-04-12T03:49:23;99384.97;;;12.25;59.91
26859;BME280;14429;48.346;16.338;2023-04-12T03:51:49;99377.16;;;12.33;59.02
26859;BME280;14429;48.346;16.338;2023-04-12T03:54:14;99384.91;;;12.47;58.27
26859;BME280;14429;48.346;16.338;2023-04-12T03:56:41;99381.50;;;12.56;57.67
26859;BME280;14429;48.346;16.338;2023-04-12T03:59:07;99385.13;;;12.55;56.46
26859;BME280;14429;48.346;16.338;2023-04-12T04:01:34;99387.56;;;12.58;57.01
26859;BME280;14429;48.346;16.338;2023-04-12T04:03:59;99386.84;;;12.56;56.65
26859;BME280;14429;48.346;16.338;2023-04-12T04:06:25;99394.53;;;12.38;57.15
26859;BME280;14429;48.346;16.338;2023-04-12T04:08:51;99399.75;;;12.40;57.87
26859;BME280;14429;48.346;16.338;2023-04-12T04:11:16;99397.09;;;12.29;58.83
26859;BME280;14429;48.346;16.338;2023-04-12T04:13:41;99389.56;;;12.12;58.72
26859;BME280;14429;48.346;16.338;2023-04-12T04:16:08;99392.91;;;11.16;58.27
26859;BME280;14429;48.346;16.338;2023-04-12T04:18:35;99389.44;;;11.26;58.84
26859;BME280;14429;48.346;16.338;2023-04-12T04:21:01;99391.31;;;11.03;56.05
26859;BME280;14429;48.346;16.338;2023-04-12T04:23:26;99382.66;;;11.78;58.98
26859;BME280;14429;48.346;16.338;2023-04-12T04:25:51;99390.06;;;11.85;58.21
26859;BME280;14429;48.346;16.338;2023-04-12T04:28:17;99382.28;;;11.93;58.14
26859;BME280;14429;48.346;16.338;2023-04-12T04:30:42;99379.72;;;11.91;57.21
26859;BME280;14429;48.346;16.338;2023-04-12T04:33:08;99382.03;;;12.17;58.42
26859;BME280;14429;48.346;16.338;2023-04-12T04:35:38;99374.97;;;12.16;59.19
26859;BME280;14429;48.346;16.338;2023-04-12T04:38:03;99386.88;;;12.23;59.52
26859;BME280;14429;48.346;16.338;2023-04-12T04:40:28;99388.09;;;12.41;58.42
26859;BME280;14429;48.346;16.338;2023-04-12T04:42:54;99392.22;;;12.45;57.89
26859;BME280;14429;48.346;16.338;2023-04-12T04:45:20;99391.34;;;12.55;57.21
26859;BME280;14429;48.346;16.338;2023-04-12T04:47:46;99383.28;;;12.66;56.61
26859;BME280;14429;48.346;16.338;2023-04-12T04:50:11;99389.00;;;12.62;56.32
26859;BME280;14429;48.346;16.338;2023-04-12T04:52:38;99385.72;;;12.58;56.22
26859;BME280;14429;48.346;16.338;2023-04-12T04:55:04;99393.25;;;12.64;55.98
26859;BME280;14429;48.346;16.338;2023-04-12T04:57:30;99394.72;;;12.57;56.65
26859;BME280;14429;48.346;16.338;2023-04-12T04:59:55;99383.81;;;12.49;57.55
26859;BME280;14429;48.346;16.338;2023-04-12T05:02:21;99384.19;;;12.45;58.15
26859;BME280;14429;48.346;16.338;2023-04-12T05:04:46;99381.75;;;12.53;57.52
26859;BME280;14429;48.346;16.338;2023-04-12T05:07:11;99385.38;;;12.63;56.82
26859;BME280;14429;48.346;16.338;2023-04-12T05:09:38;99397.41;;;12.57;56.62
26859;BME280;14429;48.346;16.338;2023-04-12T05:12:04;99394.47;;;12.60;56.32
26859;BME280;14429;48.346;16.338;2023-04-12T05:14:29;99395.72;;;12.56;55.83
26859;BME280;14429;48.346;16.338;2023-04-12T05:16:55;99399.97;;;12.59;55.91
26859;BME280;14429;48.346;16.338;2023-04-12T05:19:20;99403.53;;;11.94;55.98
26859;BME280;14429;48.346;16.338;2023-04-12T05:21:46;99410.03;;;11.47;54.92
26859;BME280;14429;48.346;16.338;2023-04-12T05:24:11;99418.66;;;11.51;56.83
26859;BME280;14429;48.346;16.338;2023-04-12T05:26:38;99413.19;;;10.61;57.46
26859;BME280;14429;48.346;16.338;2023-04-12T05:29:03;99406.28;;;11.60;59.94
26859;BME280;14429;48.346;16.338;2023-04-12T05:31:29;99410.22;;;12.00;59.01
26859;BME280;14429;48.346;16.338;2023-04-12T05:33:54;99414.03;;;10.85;59.62
26859;BME280;14429;48.346;16.338;2023-04-12T05:36:19;99422.41;;;11.14;57.20
26859;BME280;14429;48.346;16.338;2023-04-12T05:38:45;99406.34;;;11.93;58.27
26859;BME280;14429;48.346;16.338;2023-04-12T05:41:10;99406.06;;;12.28;57.04
26859;BME280;14429;48.346;16.338;2023-04-12T05:43:37;99408.03;;;12.37;56.55
26859;BME280;14429;48.346;16.338;2023-04-12T05:46:03;99406.94;;;11.85;55.01
26859;BME280;14429;48.346;16.338;2023-04-12T05:48:29;99403.66;;;12.25;57.45
26859;BME280;14429;48.346;16.338;2023-04-12T05:50:54;99400.25;;;12.34;57.50
26859;BME280;14429;48.346;16.338;2023-04-12T05:53:20;99405.34;;;12.37;57.69
26859;BME280;14429;48.346;16.338;2023-04-12T05:55:45;99402.38;;;12.51;57.08
26859;BME280;14429;48.346;16.338;2023-04-12T05:58:11;99408.69;;;12.61;56.24
26859;BME280;14429;48.346;16.338;2023-04-12T06:00:39;99403.84;;;12.55;55.31
26859;BME280;14429;48.346;16.338;2023-04-12T06:03:04;99399.63;;;12.52;56.04
26859;BME280;14429;48.346;16.338;2023-04-12T06:05:30;99399.84;;;12.49;55.58
26859;BME280;14429;48.346;16.338;2023-04-12T06:07:55;99399.44;;;12.65;55.30
26859;BME280;14429;48.346;16.338;2023-04-12T06:10:20;99401.53;;;13.03;54.42
26859;BME280;14429;48.346;16.338;2023-04-12T06:12:46;99403.94;;;13.17;54.29
26859;BME280;14429;48.346;16.338;2023-04-12T06:15:11;99401.97;;;13.19;54.19
26859;BME280;14429;48.346;16.338;2023-04-12T06:17:38;99401.97;;;13.19;54.85
26859;BME280;14429;48.346;16.338;2023-04-12T06:20:05;99399.34;;;13.08;54.93
26859;BME280;14429;48.346;16.338;2023-04-12T06:22:31;99403.41;;;13.22;53.90
26859;BME280;14429;48.346;16.338;2023-04-12T06:24:57;99401.66;;;13.32;53.78
26859;BME280;14429;48.346;16.338;2023-04-12T06:27:22;99406.06;;;13.33;53.32
26859;BME280;14429;48.346;16.338;2023-04-12T06:29:48;99399.56;;;13.36;53.11
26859;BME280;14429;48.346;16.338;2023-04-12T06:32:13;99389.19;;;13.42;52.67
26859;BME280;14429;48.346;16.338;2023-04-12T06:34:40;99393.56;;;13.43;52.87
26859;BME280;14429;48.346;16.338;2023-04-12T06:37:05;99388.19;;;13.43;53.41
26859;BME280;14429;48.346;16.338;2023-04-12T06:39:31;99393.69;;;13.62;53.37
26859;BME280;14429;48.346;16.338;2023-04-12T06:41:56;99395.84;;;13.68;53.12
26859;BME280;14429;48.346;16.338;2023-04-12T06:44:22;99391.25;;;13.59;53.13
26859;BME280;14429;48.346;16.338;2023-04-12T06:46:47;99399.41;;;13.48;53.23
26859;BME280;14429;48.346;16.338;2023-04-12T06:49:12;99400.53;;;13.55;52.85
26859;BME280;14429;48.346;16.338;2023-04-12T06:51:39;99388.97;;;13.54;52.91
26859;BME280;14429;48.346;16.338;2023-04-12T06:54:05;99398.59;;;13.57;52.71
26859;BME280;14429;48.346;16.338;2023-04-12T06:56:30;99386.31;;;13.74;51.33
26859;BME280;14429;48.346;16.338;2023-04-12T06:58:55;99382.78;;;13.74;51.61
26859;BME280;14429;48.346;16.338;2023-04-12T07:01:21;99385.97;;;13.68;52.04
26859;BME280;14429;48.346;16.338;2023-04-12T07:03:46;99384.16;;;13.69;52.55
26859;BME280;14429;48.346;16.338;2023-04-12T07:06:12;99369.84;;;13.59;53.15
26859;BME280;14429;48.346;16.338;2023-04-12T07:08:38;99368.41;;;13.55;52.28
26859;BME280;14429;48.346;16.338;2023-04-12T07:11:04;99359.44;;;13.65;52.13
26859;BME280;14429;48.346;16.338;2023-04-12T07:13:30;99366.81;;;13.73;52.15
26859;BME280;14429;48.346;16.338;2023-04-12T07:15:55;99355.97;;;13.94;49.79
26859;BME280;14429;48.346;16.338;2023-04-12T07:18:21;99346.03;;;13.85;51.35
26859;BME280;14429;48.346;16.338;2023-04-12T07:20:47;99349.50;;;13.97;50.36
26859;BME280;14429;48.346;16.338;2023-04-12T07:23:12;99350.06;;;14.00;49.72
26859;BME280;14429;48.346;16.338;2023-04-12T07:25:39;99346.59;;;14.09;47.97
26859;BME280;14429;48.346;16.338;2023-04-12T07:28:05;99346.16;;;14.04;49.83
26859;BME280;14429;48.346;16.338;2023-04-12T07:30:30;99334.53;;;14.03;49.94
26859;BME280;14429;48.346;16.338;2023-04-12T07:32:56;99336.09;;;13.97;51.20
26859;BME280;14429;48.346;16.338;2023-04-12T07:35:21;99335.22;;;13.67;52.36
26859;BME280;14429;48.346;16.338;2023-04-12T07:37:46;99329.31;;;13.73;51.97
26859;BME280;14429;48.346;16.338;2023-04-12T07:40:12;99334.41;;;13.75;51.86
26859;BME280;14429;48.346;16.338;2023-04-12T07:42:39;99325.81;;;13.81;50.97
26859;BME280;14429;48.346;16.338;2023-04-12T07:45:05;99313.88;;;13.85;49.79
26859;BME280;14429;48.346;16.338;2023-04-12T07:47:30;99306.00;;;13.93;48.47
26859;BME280;14429;48.346;16.338;2023-04-12T07:49:56;99310.72;;;13.80;46.33
26859;BME280;14429;48.346;16.338;2023-04-12T07:52:21;99302.28;;;13.85;46.29
26859;BME280;14429;48.346;16.338;2023-04-12T07:54:47;99299.75;;;13.83;50.45
26859;BME280;14429;48.346;16.338;2023-04-12T07:57:12;99309.94;;;13.89;50.54
26859;BME280;14429;48.346;16.338;2023-04-12T07:59:39;99305.38;;;13.80;51.63
26859;BME280;14429;48.346;16.338;2023-04-12T08:02:04;99294.66;;;13.80;51.62
26859;BME280;14429;48.346;16.338;2023-04-12T08:04:33;99287.91;;;14.15;48.44
26859;BME280;14429;48.346;16.338;2023-04-12T08:06:58;99281.03;;;14.59;43.39
26859;BME280;14429;48.346;16.338;2023-04-12T08:09:23;99279.19;;;15.25;42.37
26859;BME280;14429;48.346;16.338;2023-04-12T08:11:49;99268.00;;;15.39;43.56
26859;BME280;14429;48.346;16.338;2023-04-12T08:14:14;99276.78;;;15.32;43.83
26859;BME280;14429;48.346;16.338;2023-04-12T08:16:41;99263.47;;;15.39;45.62
26859;BME280;14429;48.346;16.338;2023-04-12T08:19:06;99275.41;;;15.09;46.85
26859;BME280;14429;48.346;16.338;2023-04-12T08:21:32;99272.75;;;15.54;39.86
26859;BME280;14429;48.346;16.338;2023-04-12T08:23:57;99277.59;;;15.51;43.91
26859;BME280;14429;48.346;16.338;2023-04-12T08:26:23;99285.53;;;15.34;45.79
26859;BME280;14429;48.346;16.338;2023-04-12T08:28:48;99270.75;;;15.56;44.50
26859;BME280;14429;48.346;16.338;2023-04-12T08:31:14;99265.75;;;16.06;39.81
26859;BME280;14429;48.346;16.338;2023-04-12T08:33:41;99254.47;;;15.93;43.54
26859;BME280;14429;48.346;16.338;2023-04-12T08:36:07;99265.31;;;15.75;42.98
26859;BME280;14429;48.346;16.338;2023-04-12T08:38:32;99254.41;;;16.39;38.46
26859;BME280;14429;48.346;16.338;2023-04-12T08:40:58;99256.75;;;16.42;36.99
26859;BME280;14429;48.346;16.338;2023-04-12T08:43:27;99251.75;;;16.29;41.76
26859;BME280;14429;48.346;16.338;2023-04-12T08:45:53;99243.38;;;16.49;40.86
26859;BME280;14429;48.346;16.338;2023-04-12T08:48:19;99243.56;;;16.65;39.48
26859;BME280;14429;48.346;16.338;2023-04-12T08:50:46;99241.00;;;16.98;37.53
26859;BME280;14429;48.346;16.338;2023-04-12T08:53:12;99232.84;;;17.07;35.80
26859;BME280;14429;48.346;16.338;2023-04-12T08:55:38;99220.88;;;17.27;37.08
26859;BME280;14429;48.346;16.338;2023-04-12T08:58:04;99212.41;;;17.22;35.76
26859;BME280;14429;48.346;16.338;2023-04-12T09:00:30;99226.09;;;16.69;41.86
26859;BME280;14429;48.346;16.338;2023-04-12T09:02:55;99225.88;;;15.92;43.97
26859;BME280;14429;48.346;16.338;2023-04-12T09:05:27;99211.94;;;16.33;38.58
26859;BME280;14429;48.346;16.338;2023-04-12T09:07:54;99210.84;;;15.46;45.32
26859;BME280;14429;48.346;16.338;2023-04-12T09:10:30;99198.53;;;15.80;42.24
26859;BME280;14429;48.346;16.338;2023-04-12T09:12:55;99197.25;;;16.01;40.41
26859;BME280;14429;48.346;16.338;2023-04-12T09:15:21;99190.84;;;15.85;43.36
26859;BME280;14429;48.346;16.338;2023-04-12T09:17:46;99185.75;;;15.82;42.82
26859;BME280;14429;48.346;16.338;2023-04-12T09:20:22;99189.19;;;15.74;44.42
26859;BME280;14429;48.346;16.338;2023-04-12T09:22:48;99189.06;;;15.49;45.42
26859;BME280;14429;48.346;16.338;2023-04-12T09:25:15;99178.50;;;15.65;42.12
26859;BME280;14429;48.346;16.338;2023-04-12T09:27:47;99181.44;;;15.09;46.29
26859;BME280;14429;48.346;16.338;2023-04-12T09:30:14;99169.19;;;14.69;47.21
26859;BME280;14429;48.346;16.338;2023-04-12T09:32:40;99167.19;;;14.81;43.04
26859;BME280;14429;48.346;16.338;2023-04-12T09:35:06;99159.09;;;14.99;41.84
26859;BME280;14429;48.346;16.338;2023-04-12T09:37:32;99163.50;;;14.82;46.19
26859;BME280;14429;48.346;16.338;2023-04-12T09:39:58;99151.59;;;15.12;38.98
26859;BME280;14429;48.346;16.338;2023-04-12T09:42:25;99151.88;;;15.00;38.72
26859;BME280;14429;48.346;16.338;2023-04-12T09:44:52;99145.22;;;14.49;48.07
26859;BME280;14429;48.346;16.338;2023-04-12T09:47:17;99144.22;;;14.13;49.20
26859;BME280;14429;48.346;16.338;2023-04-12T09:49:43;99130.19;;;14.75;39.93
26859;BME280;14429;48.346;16.338;2023-04-12T09:52:10;99130.53;;;14.98;43.24
26859;BME280;14429;48.346;16.338;2023-04-12T09:54:37;99126.88;;;14.99;38.04
26859;BME280;14429;48.346;16.338;2023-04-12T09:57:03;99119.97;;;14.87;42.87
26859;BME280;14429;48.346;16.338;2023-04-12T09:59:35;99117.47;;;15.48;35.81
26859;BME280;14429;48.346;16.338;2023-04-12T10:02:01;99110.13;;;14.69;46.93
26859;BME280;14429;48.346;16.338;2023-04-12T10:04:28;99100.34;;;14.14;49.15
26859;BME280;14429;48.346;16.338;2023-04-12T10:06:54;99108.75;;;14.65;37.75
26859;BME280;14429;48.346;16.338;2023-04-12T10:09:19;99106.09;;;15.01;33.73
26859;BME280;14429;48.346;16.338;2023-04-12T10:11:45;99090.53;;;15.05;36.89
26859;BME280;14429;48.346;16.338;2023-04-12T10:14:14;99095.94;;;14.95;34.82
26859;BME280;14429;48.346;16.338;2023-04-12T10:16:43;99095.44;;;15.18;38.01
26859;BME280;14429;48.346;16.338;2023-04-12T10:19:09;99087.94;;;15.22;31.27
26859;BME280;14429;48.346;16.338;2023-04-12T10:21:36;99087.63;;;15.25;39.57
26859;BME280;14429;48.346;16.338;2023-04-12T10:24:02;99077.81;;;15.16;39.67
26859;BME280;14429;48.346;16.338;2023-04-12T10:26:27;99081.44;;;15.24;33.48
26859;BME280;14429;48.346;16.338;2023-04-12T10:29:23;99083.63;;;15.02;44.93
26859;BME280;14429;48.346;16.338;2023-04-12T10:31:51;99084.03;;;15.07;35.79
26859;BME280;14429;48.346;16.338;2023-04-12T10:34:16;99075.56;;;15.02;36.78
26859;BME280;14429;48.346;16.338;2023-04-12T10:36:52;99070.88;;;15.04;44.09
26859;BME280;14429;48.346;16.338;2023-04-12T10:39:34;99073.91;;;15.28;35.64
26859;BME280;14429;48.346;16.338;2023-04-12T10:42:30;99051.56;;;15.01;37.25
26859;BME280;14429;48.346;16.338;2023-04-12T10:45:34;99053.25;;;14.92;41.62
26859;BME280;14429;48.346;16.338;2023-04-12T10:48:01;99047.03;;;15.01;42.85
26859;BME280;14429;48.346;16.338;2023-04-12T10:50:28;99057.34;;;14.96;41.51
26859;BME280;14429;48.346;16.338;2023-04-12T10:53:24;99046.88;;;14.67;46.95
26859;BME280;14429;48.346;16.338;2023-04-12T10:55:50;99039.44;;;14.87;37.08
26859;BME280;14429;48.346;16.338;2023-04-12T10:58:53;99034.03;;;14.97;43.32
26859;BME280;14429;48.346;16.338;2023-04-12T11:01:19;99036.03;;;14.95;38.96
26859;BME280;14429;48.346;16.338;2023-04-12T11:04:05;99028.72;;;14.87;41.85
26859;BME280;14429;48.346;16.338;2023-04-12T11:06:47;99019.06;;;14.94;36.76
26859;BME280;14429;48.346;16.338;2023-04-12T11:09:20;99021.88;;;14.66;46.20
26859;BME280;14429;48.346;16.338;2023-04-12T11:11:45;99023.84;;;15.10;38.08
26859;BME280;14429;48.346;16.338;2023-04-12T11:14:15;99007.97;;;15.16;36.99
26859;BME280;14429;48.346;16.338;2023-04-12T11:19:43;99006.13;;;15.34;38.15
26859;BME280;14429;48.346;16.338;2023-04-12T11:22:10;99003.00;;;15.55;36.33
26859;BME280;14429;48.346;16.338;2023-04-12T11:24:37;99015.31;;;15.14;40.21
26859;BME280;14429;48.346;16.338;2023-04-12T11:27:03;99004.41;;;15.59;34.22
26859;BME280;14429;48.346;16.338;2023-04-12T11:29:28;98996.09;;;15.70;34.31
26859;BME280;14429;48.346;16.338;2023-04-12T11:31:54;98994.63;;;15.24;44.21
26859;BME280;14429;48.346;16.338;2023-04-12T11:34:19;98988.56;;;15.56;35.56
26859;BME280;14429;48.346;16.338;2023-04-12T11:36:47;98989.88;;;15.87;33.86
26859;BME280;14429;48.346;16.338;2023-04-12T11:39:13;98982.06;;;15.76;34.33
26859;BME280;14429;48.346;16.338;2023-04-12T11:41:42;98974.38;;;15.81;34.61
26859;BME280;14429;48.346;16.338;2023-04-12T11:44:08;98977.38;;;15.61;42.97
26859;BME280;14429;48.346;16.338;2023-04-12T11:46:34;98972.72;;;14.92;40.93
26859;BME280;14429;48.346;16.338;2023-04-12T11:48:59;98962.22;;;15.08;42.56
26859;BME280;14429;48.346;16.338;2023-04-12T11:51:25;98965.78;;;14.73;36.41
26859;BME280;14429;48.346;16.338;2023-04-12T11:53:57;98965.78;;;14.73;44.90
26859;BME280;14429;48.346;16.338;2023-04-12T11:56:22;98958.44;;;14.75;45.87
26859;BME280;14429;48.346;16.338;2023-04-12T11:58:48;98953.94;;;14.92;35.20
26859;BME280;14429;48.346;16.338;2023-04-12T12:01:14;98951.31;;;14.83;40.03
26859;BME280;14429;48.346;16.338;2023-04-12T12:03:40;98951.03;;;15.03;38.65
26859;BME280;14429;48.346;16.338;2023-04-12T12:06:07;98941.53;;;15.35;32.99
26859;BME280;14429;48.346;16.338;2023-04-12T12:08:33;98949.81;;;14.98;44.56
26859;BME280;14429;48.346;16.338;2023-04-12T12:11:00;98946.72;;;14.66;46.45
26859;BME280;14429;48.346;16.338;2023-04-12T12:13:25;98939.31;;;15.04;42.15
26859;BME280;14429;48.346;16.338;2023-04-12T12:15:51;98929.19;;;14.98;32.79
26859;BME280;14429;48.346;16.338;2023-04-12T12:18:16;98929.03;;;15.00;35.74
26859;BME280;14429;48.346;16.338;2023-04-12T12:20:47;98925.53;;;14.73;46.24
26859;BME280;14429;48.346;16.338;2023-04-12T12:23:26;98924.69;;;14.72;40.82
26859;BME280;14429;48.346;16.338;2023-04-12T12:25:52;98926.91;;;14.50;46.83
26859;BME280;14429;48.346;16.338;2023-04-12T12:28:22;98921.63;;;14.31;47.43
26859;BME280;14429;48.346;16.338;2023-04-12T12:30:47;98913.78;;;14.74;37.13
26859;BME280;14429;48.346;16.338;2023-04-12T12:33:18;98910.66;;;15.22;33.50
26859;BME280;14429;48.346;16.338;2023-04-12T12:35:43;98903.22;;;14.89;44.33
26859;BME280;14429;48.346;16.338;2023-04-12T12:38:09;98906.75;;;14.73;45.28
26859;BME280;14429;48.346;16.338;2023-04-12T12:40:34;98898.97;;;14.70;45.35
26859;BME280;14429;48.346;16.338;2023-04-12T12:42:59;98890.25;;;14.68;45.73
26859;BME280;14429;48.346;16.338;2023-04-12T12:45:28;98882.38;;;14.83;38.31
26859;BME280;14429;48.346;16.338;2023-04-12T12:47:54;98884.44;;;14.89;38.92
26859;BME280;14429;48.346;16.338;2023-04-12T12:50:23;98877.25;;;14.90;36.79
26859;BME280;14429;48.346;16.338;2023-04-12T12:52:49;98877.06;;;15.18;34.78